createdAt,value
2023-01-22T00:00:19.398Z,49.20
2023-01-22T00:02:47.322Z,49.20
2023-01-22T00:05:13.978Z,49.30
2023-01-22T00:07:40.763Z,49.10
2023-01-22T00:10:07.654Z,49.10
2023-01-22T00:12:34.902Z,49.20
2023-01-22T00:15:01.554Z,49.20
2023-01-22T00:17:29.326Z,49.20
2023-01-22T00:19:56.135Z,49.20
2023-01-22T00:22:23.024Z,49.10
2023-01-22T00:24:49.695Z,49.20
2023-01-22T00:27:16.353Z,49.20
2023-01-22T00:29:43.027Z,49.10
2023-01-22T00:32:09.921Z,49.10
2023-01-22T00:34:36.625Z,49.10
2023-01-22T00:37:03.272Z,49.10
2023-01-22T00:39:29.938Z,49.00
2023-01-22T00:41:56.585Z,49.10
2023-01-22T00:44:23.233Z,49.00
2023-01-22T00:46:50.047Z,49.00
2023-01-22T00:49:16.761Z,49.00
2023-01-22T00:51:43.505Z,49.00
2023-01-22T00:54:10.452Z,49.10
2023-01-22T00:56:37.202Z,49.10
2023-01-22T00:59:10.166Z,49.10
2023-01-22T01:01:39.963Z,49.10
2023-01-22T01:04:06.671Z,49.00
2023-01-22T01:06:33.378Z,49.10
2023-01-22T01:09:00.111Z,49.00
2023-01-22T01:11:26.817Z,49.10
2023-01-22T01:13:53.640Z,49.10
2023-01-22T01:16:29.317Z,49.10
2023-01-22T01:18:59.793Z,49.70
2023-01-22T01:21:26.682Z,49.10
2023-01-22T01:23:54.242Z,49.00
2023-01-22T01:26:20.949Z,49.00
2023-01-22T01:28:47.862Z,49.00
2023-01-22T01:31:15.465Z,49.00
2023-01-22T01:33:42.443Z,49.00
2023-01-22T01:36:13.169Z,49.00
2023-01-22T01:38:39.841Z,49.00
2023-01-22T01:41:06.623Z,49.00
2023-01-22T01:43:34.438Z,49.00
2023-01-22T01:46:01.275Z,49.10
2023-01-22T01:48:38.309Z,49.00
2023-01-22T01:51:17.231Z,49.00
2023-01-22T01:53:44.571Z,49.00
2023-01-22T01:56:13.003Z,49.00
2023-01-22T01:58:39.928Z,49.00
2023-01-22T02:01:09.199Z,49.00
2023-01-22T02:03:35.923Z,49.00
2023-01-22T02:06:02.604Z,49.00
2023-01-22T02:08:29.284Z,49.00
2023-01-22T02:10:55.963Z,49.00
2023-01-22T02:13:27.208Z,49.00
2023-01-22T02:15:53.879Z,49.50
2023-01-22T02:21:26.240Z,48.90
2023-01-22T02:23:52.937Z,49.00
2023-01-22T02:26:19.648Z,48.90
2023-01-22T02:28:46.361Z,48.90
2023-01-22T02:31:13.148Z,49.00
2023-01-22T02:33:39.924Z,49.00
2023-01-22T02:36:06.865Z,49.10
2023-01-22T02:38:33.530Z,48.90
2023-01-22T02:41:00.270Z,48.80
2023-01-22T02:43:26.957Z,48.80
2023-01-22T02:45:53.942Z,48.80
2023-01-22T02:48:20.677Z,48.80
2023-01-22T02:50:47.400Z,48.70
2023-01-22T02:53:14.103Z,48.70
2023-01-22T02:55:40.864Z,48.80
2023-01-22T02:58:07.531Z,48.70
2023-01-22T03:00:34.259Z,48.70
2023-01-22T03:03:00.973Z,48.70
2023-01-22T03:05:27.660Z,48.80
2023-01-22T03:07:54.317Z,48.70
2023-01-22T03:10:21.329Z,48.80
2023-01-22T03:13:06.915Z,48.80
2023-01-22T03:15:52.332Z,48.80
2023-01-22T03:18:37.665Z,48.80
2023-01-22T03:21:33.699Z,48.80
2023-01-22T03:24:00.410Z,48.80
2023-01-22T03:26:31.684Z,48.70
2023-01-22T03:28:58.419Z,48.80
2023-01-22T03:31:25.312Z,48.80
2023-01-22T03:33:52.139Z,48.70
2023-01-22T03:36:18.850Z,48.80
2023-01-22T03:38:45.978Z,48.70
2023-01-22T03:41:13.729Z,48.80
2023-01-22T03:43:40.524Z,48.70
2023-01-22T03:46:09.404Z,48.70
2023-01-22T03:48:36.183Z,48.80
2023-01-22T03:51:06.933Z,48.70
2023-01-22T03:53:33.767Z,48.60
2023-01-22T03:56:00.835Z,48.70
2023-01-22T03:58:28.378Z,48.70
2023-01-22T04:00:57.768Z,48.70
2023-01-22T04:03:25.083Z,48.70
2023-01-22T04:05:51.886Z,48.60
2023-01-22T04:08:18.565Z,48.70
2023-01-22T04:10:45.260Z,48.60
2023-01-22T04:13:11.924Z,48.60
2023-01-22T04:15:38.612Z,48.60
2023-01-22T04:18:05.320Z,48.60
2023-01-22T04:20:32.062Z,48.60
2023-01-22T04:22:58.699Z,48.70
2023-01-22T04:25:25.406Z,48.60
2023-01-22T04:27:52.134Z,48.60
2023-01-22T04:30:19.136Z,48.60
2023-01-22T04:32:46.101Z,48.50
2023-01-22T04:35:12.781Z,48.60
2023-01-22T04:37:39.506Z,48.60
2023-01-22T04:40:06.538Z,48.60
2023-01-22T04:42:33.209Z,48.70
2023-01-22T04:44:59.942Z,48.50
2023-01-22T04:47:26.619Z,48.70
2023-01-22T04:49:53.357Z,48.60
2023-01-22T04:52:20.063Z,48.50
2023-01-22T04:54:46.789Z,48.50
2023-01-22T04:57:13.481Z,48.50
2023-01-22T04:59:43.314Z,48.40
2023-01-22T05:02:10.029Z,48.40
2023-01-22T05:04:36.717Z,48.50
2023-01-22T05:07:03.434Z,48.40
2023-01-22T05:09:30.203Z,48.40
2023-01-22T05:11:57.020Z,48.40
2023-01-22T05:14:23.742Z,48.40
2023-01-22T05:16:50.451Z,48.40
2023-01-22T05:19:17.171Z,48.40
2023-01-22T05:21:43.882Z,48.40
2023-01-22T05:24:10.579Z,48.40
2023-01-22T05:26:37.328Z,48.50
2023-01-22T05:29:04.048Z,48.30
2023-01-22T05:31:31.013Z,48.40
2023-01-22T05:33:57.827Z,48.40
2023-01-22T05:36:24.536Z,48.40
2023-01-22T05:38:51.208Z,48.40
2023-01-22T05:41:17.917Z,48.40
2023-01-22T05:43:44.576Z,48.40
2023-01-22T05:46:11.361Z,48.40
2023-01-22T05:48:38.093Z,48.40
2023-01-22T05:51:06.776Z,48.40
2023-01-22T05:53:34.140Z,48.50
2023-01-22T05:56:02.770Z,48.30
2023-01-22T05:58:30.003Z,48.40
2023-01-22T06:00:57.031Z,48.40
2023-01-22T06:03:23.804Z,48.30
2023-01-22T06:06:02.429Z,48.40
2023-01-22T06:08:29.343Z,48.40
2023-01-22T06:11:02.528Z,48.40
2023-01-22T06:13:29.338Z,48.40
2023-01-22T06:15:56.090Z,48.30
2023-01-22T06:18:23.039Z,48.30
2023-01-22T06:20:49.819Z,48.30
2023-01-22T06:23:16.559Z,48.30
2023-01-22T06:25:43.291Z,48.30
2023-01-22T06:28:10.202Z,48.30
2023-01-22T06:30:37.261Z,48.20
2023-01-22T06:33:03.992Z,48.30
2023-01-22T06:35:30.655Z,48.30
2023-01-22T06:37:57.648Z,48.40
2023-01-22T06:40:24.442Z,48.20
2023-01-22T06:42:51.150Z,48.20
2023-01-22T06:45:17.886Z,48.30
2023-01-22T06:47:45.022Z,48.20
2023-01-22T06:50:12.058Z,48.20
2023-01-22T06:52:38.877Z,48.20
2023-01-22T06:55:05.878Z,48.20
2023-01-22T06:57:32.496Z,48.20
2023-01-22T06:59:59.276Z,48.20
2023-01-22T07:02:26.032Z,48.20
2023-01-22T07:04:52.685Z,48.20
2023-01-22T07:07:19.382Z,48.20
2023-01-22T07:09:46.060Z,48.20
2023-01-22T07:12:12.678Z,48.20
2023-01-22T07:14:39.470Z,48.20
2023-01-22T07:17:06.105Z,48.20
2023-01-22T07:19:32.763Z,47.90
2023-01-22T07:21:59.352Z,48.20
2023-01-22T07:24:25.967Z,48.10
2023-01-22T07:26:52.665Z,48.40
2023-01-22T07:29:19.433Z,48.40
2023-01-22T07:31:49.384Z,48.40
2023-01-22T07:34:16.531Z,48.40
2023-01-22T07:36:43.263Z,48.20
2023-01-22T07:39:10.060Z,48.40
2023-01-22T07:41:36.675Z,48.30
2023-01-22T07:44:03.751Z,48.30
2023-01-22T07:46:30.377Z,48.40
2023-01-22T07:48:57.060Z,48.30
2023-01-22T07:51:23.812Z,48.40
2023-01-22T07:53:50.479Z,48.20
2023-01-22T07:56:19.097Z,47.90
2023-01-22T07:58:46.155Z,48.30
2023-01-22T08:01:12.919Z,48.30
2023-01-22T08:03:39.711Z,48.40
2023-01-22T08:06:09.860Z,48.40
2023-01-22T08:08:36.609Z,48.50
2023-01-22T08:11:03.316Z,48.40
2023-01-22T08:13:29.942Z,48.50
2023-01-22T08:15:56.631Z,48.50
2023-01-22T08:18:23.361Z,48.50
2023-01-22T08:20:49.965Z,48.70
2023-01-22T08:23:16.711Z,48.70
2023-01-22T08:25:43.296Z,48.70
2023-01-22T08:28:10.060Z,48.70
2023-01-22T08:30:45.299Z,48.70
2023-01-22T08:33:12.908Z,48.70
2023-01-22T08:35:39.982Z,48.70
2023-01-22T08:38:06.582Z,48.80
2023-01-22T08:40:33.260Z,48.80
2023-01-22T08:42:59.962Z,48.70
2023-01-22T08:45:26.602Z,48.80
2023-01-22T08:47:58.085Z,48.70
2023-01-22T08:50:24.672Z,48.80
2023-01-22T08:52:51.462Z,48.80
2023-01-22T08:55:18.111Z,48.70
2023-01-22T08:57:44.781Z,48.80
2023-01-22T09:00:11.666Z,48.80
2023-01-22T09:02:38.350Z,48.90
2023-01-22T09:05:05.169Z,48.90
2023-01-22T09:07:31.762Z,48.90
2023-01-22T09:09:58.365Z,49.00
2023-01-22T09:12:24.998Z,48.90
2023-01-22T09:14:51.766Z,49.10
2023-01-22T09:17:18.366Z,49.00
2023-01-22T09:19:45.010Z,49.00
2023-01-22T09:22:11.597Z,49.10
2023-01-22T09:24:38.246Z,49.10
2023-01-22T09:27:04.843Z,49.20
2023-01-22T09:29:31.581Z,49.20
2023-01-22T09:31:58.344Z,49.30
2023-01-22T09:34:25.035Z,49.40
2023-01-22T09:36:51.879Z,49.30
2023-01-22T09:39:18.502Z,49.40
2023-01-22T09:41:46.741Z,49.30
2023-01-22T09:44:20.607Z,49.40
2023-01-22T09:46:48.146Z,49.60
2023-01-22T09:49:15.870Z,49.10
2023-01-22T09:51:55.657Z,49.10
2023-01-22T09:54:22.338Z,49.60
2023-01-22T09:56:52.420Z,49.60
2023-01-22T09:59:31.308Z,49.30
2023-01-22T10:02:00.287Z,49.30
2023-01-22T10:04:34.821Z,49.30
2023-01-22T10:07:01.607Z,49.20
2023-01-22T10:09:30.097Z,48.90
2023-01-22T10:11:57.033Z,49.10
2023-01-22T10:14:23.793Z,50.00
2023-01-22T10:16:50.438Z,49.20
2023-01-22T10:19:27.598Z,49.30
2023-01-22T10:22:13.232Z,49.50
2023-01-22T10:24:39.815Z,49.40
2023-01-22T10:27:10.325Z,49.50
2023-01-22T10:29:39.009Z,49.40
2023-01-22T10:32:17.189Z,49.50
2023-01-22T10:34:43.841Z,49.50
2023-01-22T10:37:15.111Z,49.10
2023-01-22T10:39:42.479Z,49.40
2023-01-22T10:42:19.932Z,49.50
2023-01-22T10:44:48.091Z,49.60
2023-01-22T10:47:20.763Z,49.60
2023-01-22T10:49:48.120Z,49.60
2023-01-22T10:52:26.063Z,49.60
2023-01-22T10:54:56.744Z,49.40
2023-01-22T10:57:28.870Z,49.50
2023-01-22T11:00:02.426Z,49.30
2023-01-22T11:02:29.144Z,49.40
2023-01-22T11:04:56.537Z,49.90
2023-01-22T11:07:24.598Z,49.20
2023-01-22T11:10:08.119Z,49.40
2023-01-22T11:12:38.514Z,49.20
2023-01-22T11:15:31.678Z,49.40
2023-01-22T11:18:00.237Z,49.10
2023-01-22T11:20:46.943Z,49.10
2023-01-22T11:23:32.485Z,49.10
2023-01-22T11:26:18.294Z,49.00
2023-01-22T11:28:48.006Z,49.10
2023-01-22T11:31:21.270Z,49.00
2023-01-22T11:33:51.369Z,49.00
2023-01-22T11:36:20.051Z,49.00
2023-01-22T11:38:49.167Z,49.00
2023-01-22T11:41:18.184Z,48.90
2023-01-22T11:43:58.231Z,48.90
2023-01-22T11:46:34.922Z,48.90
2023-01-22T11:49:01.612Z,48.90
2023-01-22T11:51:34.472Z,49.00
2023-01-22T11:54:04.151Z,48.80
2023-01-22T11:56:51.265Z,49.00
2023-01-22T11:59:17.970Z,48.80
2023-01-22T12:01:54.800Z,48.80
2023-01-22T12:04:24.745Z,48.90
2023-01-22T12:07:13.587Z,48.70
2023-01-22T12:09:59.097Z,49.00
2023-01-22T12:12:43.999Z,48.80
2023-01-22T12:15:29.130Z,48.80
2023-01-22T12:18:04.916Z,48.80
2023-01-22T12:20:51.211Z,49.00
2023-01-22T12:23:23.000Z,49.30
2023-01-22T12:26:00.572Z,49.20
2023-01-22T12:28:29.218Z,49.40
2023-01-22T12:30:56.024Z,49.60
2023-01-22T12:33:24.357Z,49.90
2023-01-22T12:35:51.757Z,50.20
2023-01-22T12:38:31.273Z,50.30
2023-01-22T12:41:01.349Z,50.70
2023-01-22T12:43:37.442Z,51.20
2023-01-22T12:46:07.613Z,51.30
2023-01-22T12:48:49.183Z,52.00
2023-01-22T12:51:35.224Z,51.70
2023-01-22T12:54:09.382Z,51.70
2023-01-22T12:56:36.164Z,51.90
2023-01-22T12:59:02.980Z,52.60
2023-01-22T13:01:34.258Z,52.10
2023-01-22T13:04:02.300Z,52.20
2023-01-22T13:06:34.064Z,52.10
2023-01-22T13:09:00.885Z,52.10
2023-01-22T13:11:27.740Z,52.40
2023-01-22T13:14:00.659Z,52.50
2023-01-22T13:16:37.840Z,52.40
2023-01-22T13:19:32.330Z,52.80
2023-01-22T13:21:59.615Z,52.30
2023-01-22T13:24:26.469Z,52.80
2023-01-22T13:26:58.436Z,52.50
2023-01-22T13:29:32.239Z,52.80
2023-01-22T13:32:00.028Z,52.80
2023-01-22T13:34:26.967Z,52.80
2023-01-22T13:36:54.115Z,52.90
2023-01-22T13:39:24.331Z,53.00
2023-01-22T13:41:51.992Z,52.90
2023-01-22T13:44:19.887Z,53.00
2023-01-22T13:46:46.844Z,53.10
2023-01-22T13:49:21.202Z,53.10
2023-01-22T13:51:47.975Z,53.10
2023-01-22T13:54:19.406Z,53.00
2023-01-22T13:56:46.234Z,53.10
2023-01-22T13:59:16.713Z,53.30
2023-01-22T14:01:43.728Z,53.30
2023-01-22T14:04:29.391Z,53.40
2023-01-22T14:06:56.278Z,53.30
2023-01-22T14:09:33.263Z,53.40
2023-01-22T14:12:00.140Z,53.30
2023-01-22T14:14:27.893Z,53.30
2023-01-22T14:16:54.779Z,53.60
2023-01-22T14:19:21.531Z,53.50
2023-01-22T14:21:48.261Z,53.60
2023-01-22T14:24:15.134Z,53.70
2023-01-22T14:26:42.096Z,53.60
2023-01-22T14:29:09.838Z,53.70
2023-01-22T14:31:37.620Z,53.80
2023-01-22T14:34:04.376Z,53.70
2023-01-22T14:36:31.132Z,53.70
2023-01-22T14:38:58.917Z,53.90
2023-01-22T14:41:25.667Z,53.90
2023-01-22T14:43:52.468Z,53.00
2023-01-22T14:46:19.305Z,53.70
2023-01-22T14:48:46.119Z,53.70
2023-01-22T14:51:13.036Z,53.70
2023-01-22T14:53:40.191Z,53.80
2023-01-22T14:56:07.094Z,52.90
2023-01-22T14:58:33.936Z,53.80
2023-01-22T15:01:00.882Z,53.80
2023-01-22T15:03:30.847Z,53.70
2023-01-22T15:05:57.879Z,53.70
2023-01-22T15:08:27.698Z,53.70
2023-01-22T15:10:54.631Z,53.70
2023-01-22T15:13:21.780Z,54.20
2023-01-22T15:15:48.516Z,53.70
2023-01-22T15:18:15.365Z,53.70
2023-01-22T15:20:42.301Z,53.70
2023-01-22T15:23:09.327Z,53.50
2023-01-22T15:25:36.168Z,53.70
2023-01-22T15:28:03.732Z,53.70
2023-01-22T15:30:30.571Z,53.60
2023-01-22T15:33:00.415Z,53.60
2023-01-22T15:35:27.201Z,53.60
2023-01-22T15:37:53.952Z,53.70
2023-01-22T15:40:21.521Z,53.70
2023-01-22T15:42:48.499Z,53.70
2023-01-22T15:45:15.714Z,53.70
2023-01-22T15:47:42.915Z,53.70
2023-01-22T15:50:10.234Z,53.60
2023-01-22T15:52:37.244Z,53.70
2023-01-22T15:55:04.842Z,53.80
2023-01-22T15:57:31.812Z,53.60
2023-01-22T15:59:59.113Z,54.30
2023-01-22T16:02:26.484Z,53.70
2023-01-22T16:04:53.347Z,53.70
2023-01-22T16:07:20.476Z,53.60
2023-01-22T16:09:47.413Z,53.70
2023-01-22T16:12:15.734Z,53.60
2023-01-22T16:14:42.866Z,53.80
2023-01-22T16:17:09.782Z,53.70
2023-01-22T16:19:37.161Z,53.70
2023-01-22T16:22:03.885Z,53.70
2023-01-22T16:24:30.744Z,53.80
2023-01-22T16:26:58.205Z,53.70
2023-01-22T16:29:25.260Z,53.90
2023-01-22T16:31:51.991Z,53.60
2023-01-22T16:34:19.752Z,53.70
2023-01-22T16:36:50.177Z,53.70
2023-01-22T16:39:17.920Z,53.70
2023-01-22T16:41:46.197Z,53.70
2023-01-22T16:44:13.607Z,53.60
2023-01-22T16:46:41.123Z,53.90
2023-01-22T16:49:10.454Z,53.80
2023-01-22T16:51:38.323Z,53.70
2023-01-22T16:54:05.139Z,53.80
2023-01-22T16:56:32.626Z,53.70
2023-01-22T16:58:59.700Z,53.90
2023-01-22T17:01:27.012Z,53.70
2023-01-22T17:03:53.781Z,53.90
2023-01-22T17:06:27.693Z,53.80
2023-01-22T17:08:54.413Z,53.80
2023-01-22T17:11:21.208Z,53.80
2023-01-22T17:13:47.968Z,53.70
2023-01-22T17:16:14.823Z,53.80
2023-01-22T17:18:41.590Z,53.70
2023-01-22T17:21:08.732Z,53.70
2023-01-22T17:23:35.577Z,54.00
2023-01-22T17:26:06.303Z,53.90
2023-01-22T17:28:35.600Z,54.00
2023-01-22T17:31:04.946Z,53.80
2023-01-22T17:33:31.801Z,53.70
2023-01-22T17:35:59.357Z,53.90
2023-01-22T17:38:28.144Z,53.70
2023-01-22T17:40:55.916Z,54.00
2023-01-22T17:43:22.730Z,54.50
2023-01-22T17:45:50.315Z,53.70
2023-01-22T17:48:17.146Z,54.00
2023-01-22T17:50:44.369Z,54.00
2023-01-22T17:53:11.672Z,53.90
2023-01-22T17:55:39.985Z,54.00
2023-01-22T17:58:06.705Z,54.00
2023-01-22T18:00:38.454Z,53.90
2023-01-22T18:03:05.332Z,54.00
2023-01-22T18:05:32.776Z,53.50
2023-01-22T18:07:59.865Z,53.70
2023-01-22T18:10:27.941Z,53.40
2023-01-22T18:12:54.821Z,53.80
2023-01-22T18:15:24.115Z,54.50
2023-01-22T18:17:52.578Z,54.70
2023-01-22T18:20:19.316Z,54.80
2023-01-22T18:22:47.712Z,54.80
2023-01-22T18:25:14.910Z,54.90
2023-01-22T18:27:41.848Z,54.80
2023-01-22T18:30:10.961Z,54.70
2023-01-22T18:32:39.394Z,54.80
2023-01-22T18:35:07.770Z,54.70
2023-01-22T18:37:39.606Z,54.50
2023-01-22T18:40:07.122Z,54.70
2023-01-22T18:42:34.388Z,54.50
2023-01-22T18:45:01.446Z,54.70
2023-01-22T18:47:29.017Z,54.70
2023-01-22T18:49:55.965Z,54.60
2023-01-22T18:52:23.052Z,54.50
2023-01-22T18:54:49.977Z,54.60
2023-01-22T18:57:17.005Z,54.80
2023-01-22T18:59:43.832Z,54.60
2023-01-22T19:02:13.292Z,54.70
2023-01-22T19:04:40.059Z,54.50
2023-01-22T19:07:07.310Z,54.50
2023-01-22T19:09:35.162Z,54.50
2023-01-22T19:12:02.111Z,54.50
2023-01-22T19:14:28.969Z,54.50
2023-01-22T19:16:55.703Z,54.50
2023-01-22T19:19:25.284Z,54.50
2023-01-22T19:21:53.347Z,54.50
2023-01-22T19:24:22.508Z,54.60
2023-01-22T19:26:51.335Z,54.70
2023-01-22T19:29:18.506Z,54.70
2023-01-22T19:31:46.543Z,54.80
2023-01-22T19:34:15.304Z,54.60
2023-01-22T19:36:42.056Z,54.80
2023-01-22T19:39:11.612Z,54.50
2023-01-22T19:41:38.945Z,54.70
2023-01-22T19:44:05.746Z,54.80
2023-01-22T19:46:32.473Z,54.90
2023-01-22T19:48:59.196Z,54.80
2023-01-22T19:51:27.095Z,54.90
2023-01-22T19:53:54.251Z,55.00
2023-01-22T19:56:24.601Z,54.80
2023-01-22T19:58:53.561Z,54.80
2023-01-22T20:01:21.169Z,54.90
2023-01-22T20:03:48.661Z,55.00
2023-01-22T20:06:16.448Z,54.90
2023-01-22T20:09:02.619Z,54.90
2023-01-22T20:11:29.540Z,54.90
2023-01-22T20:14:07.217Z,54.90
2023-01-22T20:16:47.035Z,54.80
2023-01-22T20:19:46.074Z,54.90
2023-01-22T20:22:12.812Z,54.90
2023-01-22T20:24:40.333Z,54.80
2023-01-22T20:27:07.393Z,54.70
2023-01-22T20:29:34.236Z,54.80
2023-01-22T20:32:07.416Z,54.70
2023-01-22T20:34:34.158Z,54.80
2023-01-22T20:37:00.928Z,55.30
2023-01-22T20:39:27.767Z,54.80
2023-01-22T20:41:54.551Z,54.80
2023-01-22T20:44:21.421Z,54.60
2023-01-22T20:46:48.976Z,54.60
2023-01-22T20:49:15.677Z,54.60
2023-01-22T20:51:42.864Z,54.50
2023-01-22T20:54:09.604Z,54.70
2023-01-22T20:56:36.334Z,54.70
2023-01-22T20:59:04.223Z,54.40
2023-01-22T21:01:31.047Z,54.70
2023-01-22T21:03:57.982Z,54.50
2023-01-22T21:06:25.749Z,54.50
2023-01-22T21:08:52.855Z,54.60
2023-01-22T21:11:20.437Z,54.50
2023-01-22T21:13:50.100Z,54.60
2023-01-22T21:16:18.489Z,54.60
2023-01-22T21:18:46.400Z,54.50
2023-01-22T21:21:14.153Z,54.60
2023-01-22T21:23:44.338Z,54.50
2023-01-22T21:26:11.732Z,54.60
2023-01-22T21:28:39.778Z,54.60
2023-01-22T21:31:07.369Z,54.40
2023-01-22T21:33:34.107Z,54.50
2023-01-22T21:36:00.787Z,54.50
2023-01-22T21:38:27.977Z,54.40
2023-01-22T21:41:02.477Z,54.50
2023-01-22T21:43:47.913Z,54.40
2023-01-22T21:46:25.311Z,54.40
2023-01-22T21:48:53.299Z,54.40
2023-01-22T21:51:20.185Z,54.40
2023-01-22T21:53:47.030Z,54.30
2023-01-22T21:56:13.746Z,54.30
2023-01-22T21:58:45.144Z,54.30
2023-01-22T22:01:15.914Z,54.30
2023-01-22T22:03:42.673Z,54.30
2023-01-22T22:06:09.794Z,54.30
2023-01-22T22:08:37.125Z,54.30
2023-01-22T22:11:04.053Z,54.40
2023-01-22T22:13:31.377Z,54.30
2023-01-22T22:16:01.562Z,54.40
2023-01-22T22:18:28.473Z,54.40
2023-01-22T22:20:55.448Z,54.10
2023-01-22T22:23:22.125Z,54.40
2023-01-22T22:25:49.132Z,54.40
2023-01-22T22:28:17.743Z,54.30
2023-01-22T22:30:44.550Z,54.40
2023-01-22T22:33:11.476Z,54.40
2023-01-22T22:35:38.630Z,54.40
2023-01-22T22:38:05.294Z,54.40
2023-01-22T22:40:32.112Z,54.30
2023-01-22T22:42:59.058Z,54.50
2023-01-22T22:45:25.798Z,54.60
2023-01-22T22:47:52.420Z,54.40
2023-01-22T22:50:19.378Z,54.60
2023-01-22T22:52:47.279Z,54.30
2023-01-22T22:55:13.866Z,54.30
2023-01-22T22:57:40.462Z,54.50
2023-01-22T23:00:12.005Z,54.30
2023-01-22T23:02:38.824Z,54.50
2023-01-22T23:05:05.627Z,54.40
2023-01-22T23:07:32.204Z,54.30
2023-01-22T23:09:58.767Z,54.30
2023-01-22T23:12:25.402Z,54.30
2023-01-22T23:14:52.053Z,54.30
2023-01-22T23:17:18.625Z,54.40
2023-01-22T23:19:45.190Z,54.50
2023-01-22T23:22:11.756Z,54.30
2023-01-22T23:24:38.926Z,54.70
2023-01-22T23:27:05.538Z,54.40
2023-01-22T23:29:32.179Z,54.50
2023-01-22T23:31:58.847Z,54.60
2023-01-22T23:34:25.456Z,54.40
2023-01-22T23:36:52.107Z,54.60
2023-01-22T23:39:20.264Z,54.60
2023-01-22T23:41:46.889Z,54.50
2023-01-22T23:44:13.466Z,54.50
2023-01-22T23:46:40.197Z,54.30
2023-01-22T23:49:06.826Z,54.40
2023-01-22T23:51:33.417Z,54.50
2023-01-22T23:54:00.035Z,54.50
2023-01-22T23:56:27.593Z,54.40
2023-01-22T23:58:54.602Z,54.90
